Flight NumberIRM065 Date12.05.2018
Departure AirportOIIE Arrival AirportOMDB
Departure Time14.29Arrival Time14.56
Pilot In CommandSaeed TabaTabaei Block Time1.80 Hours
Pilot Rating100 % AircraftEP-MNO [ A310-300ET ]


Distance649.00 Nm. Passengers202
Fuel Used8,181 Kg. Cargo16689 Kg
Expense Details Income Details
Fuel Cost8,742 v$Ticket Sales30,502 v$
Pilot Salary3,805 v$ Cargo income24,789.00 v$
Crew Salary1,010 v$ Bonus9,061 v$
Gross Profit50,562 v$ ( 505,620 v$ )

Client Versionv2.2.0.rc3 Max Simrate1
Flight Critique Pilot CommentsOMDB 121400Z 28006KT 250V320 CAVOK 40/08 Q1002 NOSIG// VUTE1C ILS RWY 30L